EGPL - Benbecula
Distance from station: E 5mi, 14km
Updated: 07/15/2018 7:50pm
Clear
Clear
 Wind from SW
Wind: SW 13 mph , 20 km/h
Temperature: 55°F , 13°C
Dew Point: 54°F , 12°C
Humidity: 94%
Barometer: 29.77 inHg , 1008 hPa
Clouds: Clear
Visibility: 6 miles , 10 km
2018/07/16 02:50 EGPL 160250Z AUTO 22011KT 9999 NCD 13/12 Q1008